createdAt,value
2022-11-09T00:00:20.003Z,2.70
2022-11-09T00:01:19.962Z,2.40
2022-11-09T00:02:19.966Z,2.40
2022-11-09T00:03:21.423Z,2.30
2022-11-09T00:04:19.958Z,2.50
2022-11-09T00:05:19.960Z,2.30
2022-11-09T00:06:19.992Z,2.30
2022-11-09T00:07:20.057Z,2.50
2022-11-09T00:08:19.918Z,2.50
2022-11-09T00:09:19.925Z,2.40
2022-11-09T00:10:19.893Z,2.20
2022-11-09T00:11:19.906Z,2.50
2022-11-09T00:12:19.921Z,2.10
2022-11-09T00:13:20.204Z,2.50
2022-11-09T00:14:19.863Z,2.40
2022-11-09T00:15:19.918Z,2.20
2022-11-09T00:16:19.860Z,2.20
2022-11-09T00:17:19.891Z,2.20
2022-11-09T00:18:19.842Z,2.30
2022-11-09T00:19:19.831Z,2.10
2022-11-09T00:20:19.852Z,2.40
2022-11-09T00:21:19.824Z,2.30
2022-11-09T00:22:19.810Z,2.60
2022-11-09T00:23:20.045Z,2.00
2022-11-09T00:24:19.830Z,2.20
2022-11-09T00:25:19.795Z,2.70
2022-11-09T00:26:19.781Z,2.70
2022-11-09T00:27:19.768Z,2.40
2022-11-09T00:28:19.761Z,2.20
2022-11-09T00:29:19.779Z,2.50
2022-11-09T00:30:19.751Z,2.30
2022-11-09T00:31:19.743Z,2.80
2022-11-09T00:32:21.999Z,2.60
2022-11-09T00:33:21.030Z,2.90
2022-11-09T00:34:19.757Z,2.20
2022-11-09T00:35:19.767Z,2.40
2022-11-09T00:36:19.709Z,2.30
2022-11-09T00:37:19.839Z,2.60
2022-11-09T00:38:19.703Z,2.30
2022-11-09T00:39:19.703Z,2.50
2022-11-09T00:40:19.683Z,2.60
2022-11-09T00:41:19.672Z,2.40
2022-11-09T00:42:19.662Z,2.70
2022-11-09T00:43:19.833Z,2.60
2022-11-09T00:44:19.693Z,2.50
2022-11-09T00:45:19.672Z,2.60
2022-11-09T00:46:19.650Z,2.40
2022-11-09T00:47:19.621Z,2.90
2022-11-09T00:48:19.633Z,2.50
2022-11-09T00:49:19.631Z,2.60
2022-11-09T00:50:19.628Z,2.60
2022-11-09T00:51:19.605Z,2.70
2022-11-09T00:52:20.772Z,2.40
2022-11-09T00:53:19.827Z,2.70
2022-11-09T00:54:19.616Z,2.40
2022-11-09T00:55:19.572Z,2.40
2022-11-09T00:56:19.577Z,2.30
2022-11-09T00:57:19.569Z,2.40
2022-11-09T00:58:19.629Z,2.20
2022-11-09T00:59:19.538Z,2.20
2022-11-09T01:00:19.555Z,2.30
2022-11-09T01:01:19.585Z,2.60
2022-11-09T01:02:19.518Z,2.40
2022-11-09T01:03:19.822Z,2.30
2022-11-09T01:04:19.522Z,2.40
2022-11-09T01:05:19.538Z,2.60
2022-11-09T01:06:19.485Z,2.30
2022-11-09T01:07:19.557Z,2.30
2022-11-09T01:08:19.486Z,3.00
2022-11-09T01:09:19.508Z,2.80
2022-11-09T01:10:19.467Z,2.50
2022-11-09T01:11:19.484Z,2.70
2022-11-09T01:12:19.479Z,2.70
2022-11-09T01:13:19.787Z,2.70
2022-11-09T01:14:19.440Z,3.20
2022-11-09T01:15:19.432Z,2.70
2022-11-09T01:16:19.430Z,2.80
2022-11-09T01:17:19.450Z,2.80
2022-11-09T01:18:19.451Z,2.50
2022-11-09T01:19:19.425Z,2.90
2022-11-09T01:20:19.386Z,2.90
2022-11-09T01:21:19.382Z,2.70
2022-11-09T01:22:19.384Z,2.90
2022-11-09T01:23:19.737Z,3.10
2022-11-09T01:24:19.396Z,2.80
2022-11-09T01:25:19.404Z,2.90
2022-11-09T01:26:19.340Z,3.10
2022-11-09T01:27:19.361Z,3.40
2022-11-09T01:28:19.333Z,3.20
2022-11-09T01:29:19.359Z,3.40
2022-11-09T01:30:19.325Z,3.00
2022-11-09T01:31:19.314Z,3.40
2022-11-09T01:32:19.311Z,3.60
2022-11-09T01:33:19.582Z,4.10
2022-11-09T01:34:19.297Z,3.80
2022-11-09T01:35:19.313Z,3.90
2022-11-09T01:36:19.280Z,3.90
2022-11-09T01:37:23.686Z,3.70
2022-11-09T01:38:19.267Z,3.90
2022-11-09T01:39:19.294Z,3.60
2022-11-09T01:40:19.233Z,3.60
2022-11-09T01:41:19.260Z,4.20
2022-11-09T01:42:19.253Z,4.00
2022-11-09T01:43:19.581Z,4.20
2022-11-09T01:44:20.248Z,4.40
2022-11-09T01:45:19.285Z,3.80
2022-11-09T01:46:19.250Z,4.60
2022-11-09T01:47:19.198Z,4.10
2022-11-09T01:48:19.204Z,4.10
2022-11-09T01:49:19.211Z,4.10
2022-11-09T01:50:19.183Z,4.40
2022-11-09T01:51:19.172Z,4.40
2022-11-09T01:52:19.168Z,4.10
2022-11-09T01:53:19.557Z,3.80
2022-11-09T01:54:19.181Z,3.60
2022-11-09T01:55:19.136Z,4.10
2022-11-09T01:56:19.160Z,3.90
2022-11-09T01:57:19.148Z,4.30
2022-11-09T01:58:19.130Z,4.10
2022-11-09T01:59:19.111Z,3.80
2022-11-09T02:00:19.130Z,3.80
2022-11-09T02:01:19.200Z,3.90
2022-11-09T02:02:19.117Z,4.40
2022-11-09T02:03:19.337Z,4.30
2022-11-09T02:04:19.076Z,4.30
2022-11-09T02:05:19.072Z,4.10
2022-11-09T02:06:19.065Z,3.80
2022-11-09T02:07:19.162Z,3.90
2022-11-09T02:08:19.054Z,4.30
2022-11-09T02:09:19.066Z,4.10
2022-11-09T02:10:19.052Z,3.80
2022-11-09T02:11:19.024Z,4.10
2022-11-09T02:12:19.051Z,3.90
2022-11-09T02:13:19.559Z,4.00
2022-11-09T02:14:19.044Z,4.20
2022-11-09T02:15:18.987Z,4.30
2022-11-09T02:16:18.990Z,3.80
2022-11-09T02:17:18.997Z,3.70
2022-11-09T02:18:19.000Z,4.00
2022-11-09T02:19:18.981Z,3.80
2022-11-09T02:20:18.969Z,4.10
2022-11-09T02:21:18.983Z,4.20
2022-11-09T02:22:18.982Z,4.10
2022-11-09T02:23:19.369Z,3.90
2022-11-09T02:24:18.961Z,4.60
2022-11-09T02:25:18.949Z,4.20
2022-11-09T02:26:18.920Z,4.00
2022-11-09T02:27:19.016Z,3.90
2022-11-09T02:28:18.928Z,4.40
2022-11-09T02:29:18.897Z,4.30
2022-11-09T02:30:18.907Z,4.30
2022-11-09T02:31:18.909Z,4.50
2022-11-09T02:32:18.907Z,4.40
2022-11-09T02:33:19.141Z,4.80
2022-11-09T02:34:18.874Z,5.30
2022-11-09T02:35:18.899Z,4.60
2022-11-09T02:36:18.858Z,4.50
2022-11-09T02:37:18.882Z,4.30
2022-11-09T02:38:18.828Z,5.10
2022-11-09T02:39:18.845Z,4.90
2022-11-09T02:40:18.825Z,5.10
2022-11-09T02:41:18.821Z,5.30
2022-11-09T02:42:21.669Z,5.40
2022-11-09T02:43:20.042Z,5.50
2022-11-09T02:44:18.799Z,6.10
2022-11-09T02:45:18.926Z,6.10
2022-11-09T02:46:18.799Z,5.60
2022-11-09T02:47:18.803Z,5.50
2022-11-09T02:48:18.781Z,5.80
2022-11-09T02:49:18.794Z,5.70
2022-11-09T02:50:18.765Z,5.50
2022-11-09T02:51:18.743Z,6.00
2022-11-09T02:52:18.771Z,5.80
2022-11-09T02:53:19.065Z,5.80
2022-11-09T02:54:18.737Z,6.30
2022-11-09T02:55:18.718Z,5.60
2022-11-09T02:56:18.718Z,5.90
2022-11-09T02:57:18.717Z,6.00
2022-11-09T02:58:18.735Z,6.00
2022-11-09T02:59:18.715Z,6.30
2022-11-09T03:00:18.700Z,6.00
2022-11-09T03:01:18.744Z,6.10
2022-11-09T03:02:18.704Z,6.00
2022-11-09T03:03:19.040Z,6.30
2022-11-09T03:04:18.682Z,6.60
2022-11-09T03:05:18.715Z,5.90
2022-11-09T03:06:18.675Z,6.50
2022-11-09T03:07:18.755Z,6.40
2022-11-09T03:08:18.630Z,5.40
2022-11-09T03:09:18.659Z,6.10
2022-11-09T03:10:18.623Z,6.30
2022-11-09T03:11:18.614Z,5.90
2022-11-09T03:12:18.613Z,5.50
2022-11-09T03:13:18.994Z,6.00
2022-11-09T03:14:18.616Z,5.70
2022-11-09T03:15:18.598Z,5.20
2022-11-09T03:16:18.625Z,6.00
2022-11-09T03:17:18.586Z,5.00
2022-11-09T03:18:18.595Z,5.80
2022-11-09T03:19:18.615Z,5.50
2022-11-09T03:20:18.605Z,5.30
2022-11-09T03:21:18.544Z,5.50
2022-11-09T03:22:18.579Z,5.30
2022-11-09T03:23:19.032Z,5.10
2022-11-09T03:24:18.525Z,5.50
2022-11-09T03:25:18.565Z,5.20
2022-11-09T03:26:18.549Z,5.10
2022-11-09T03:27:18.542Z,4.70
2022-11-09T03:28:18.509Z,5.00
2022-11-09T03:29:18.516Z,5.30
2022-11-09T03:30:18.513Z,5.70
2022-11-09T03:31:18.492Z,5.90
2022-11-09T03:32:18.503Z,5.80
2022-11-09T03:33:18.911Z,5.80
2022-11-09T03:34:18.474Z,5.40
2022-11-09T03:35:18.490Z,5.70
2022-11-09T03:36:18.457Z,5.70
2022-11-09T03:37:18.528Z,6.00
2022-11-09T03:38:19.441Z,5.80
2022-11-09T03:39:18.430Z,6.60
2022-11-09T03:40:18.433Z,6.00
2022-11-09T03:41:18.455Z,6.00
2022-11-09T03:42:18.453Z,5.40
2022-11-09T03:43:18.887Z,5.10
2022-11-09T03:44:18.397Z,5.40
2022-11-09T03:45:18.399Z,5.40
2022-11-09T03:46:18.395Z,5.00
2022-11-09T03:47:18.398Z,5.10
2022-11-09T03:48:18.391Z,5.50
2022-11-09T03:49:18.378Z,5.50
2022-11-09T03:50:18.359Z,5.60
2022-11-09T03:51:18.349Z,4.60
2022-11-09T03:52:18.370Z,4.90
2022-11-09T03:53:18.705Z,4.60
2022-11-09T03:54:18.366Z,4.80
2022-11-09T03:55:18.329Z,5.10
2022-11-09T03:56:18.317Z,5.00
2022-11-09T03:57:18.308Z,4.90
2022-11-09T03:58:18.328Z,5.10
2022-11-09T03:59:18.310Z,4.50
2022-11-09T04:00:18.301Z,5.20
2022-11-09T04:01:18.312Z,4.90
2022-11-09T04:02:18.276Z,4.70
2022-11-09T04:03:18.570Z,4.60
2022-11-09T04:04:18.296Z,4.40
2022-11-09T04:05:18.266Z,4.70
2022-11-09T04:06:18.254Z,4.20
2022-11-09T04:07:18.314Z,4.20
2022-11-09T04:08:18.228Z,4.30
2022-11-09T04:09:18.249Z,4.20
2022-11-09T04:10:18.243Z,4.20
2022-11-09T04:11:18.241Z,4.10
2022-11-09T04:12:18.192Z,3.80
2022-11-09T04:13:18.661Z,4.10
2022-11-09T04:14:18.218Z,4.10
2022-11-09T04:15:18.174Z,3.70
2022-11-09T04:16:18.193Z,3.90
2022-11-09T04:17:18.165Z,3.50
2022-11-09T04:18:18.161Z,3.60
2022-11-09T04:19:18.194Z,3.80
2022-11-09T04:20:18.191Z,3.50
2022-11-09T04:21:23.573Z,3.00
2022-11-09T04:22:20.144Z,3.20
2022-11-09T04:23:18.386Z,3.10
2022-11-09T04:24:18.139Z,3.40
2022-11-09T04:25:18.133Z,3.60
2022-11-09T04:26:18.119Z,3.20
2022-11-09T04:27:18.126Z,3.20
2022-11-09T04:28:18.088Z,3.40
2022-11-09T04:29:18.118Z,2.70
2022-11-09T04:30:18.099Z,2.90
2022-11-09T04:31:18.088Z,2.90
2022-11-09T04:32:18.096Z,3.00
2022-11-09T04:33:18.407Z,3.00
2022-11-09T04:34:18.065Z,3.20
2022-11-09T04:35:19.096Z,2.90
2022-11-09T04:36:18.139Z,3.10
2022-11-09T04:37:18.044Z,3.10
2022-11-09T04:38:18.051Z,3.00
2022-11-09T04:39:18.039Z,3.10
2022-11-09T04:40:18.016Z,3.10
2022-11-09T04:41:18.057Z,3.40
2022-11-09T04:42:18.035Z,3.00
2022-11-09T04:43:18.295Z,3.20
2022-11-09T04:44:17.992Z,3.20
2022-11-09T04:45:17.984Z,2.90
2022-11-09T04:46:17.972Z,3.40
2022-11-09T04:47:18.005Z,3.40
2022-11-09T04:48:17.967Z,3.50
2022-11-09T04:49:17.962Z,3.30
2022-11-09T04:50:18.075Z,3.60
2022-11-09T04:51:17.935Z,3.30
2022-11-09T04:52:17.931Z,3.50
2022-11-09T04:53:17.975Z,3.30
2022-11-09T04:54:17.943Z,3.00
2022-11-09T04:55:17.941Z,3.00
2022-11-09T04:56:17.911Z,3.30
2022-11-09T04:57:17.904Z,2.90
2022-11-09T04:58:22.350Z,2.90
2022-11-09T04:59:19.885Z,3.20
2022-11-09T05:00:17.894Z,3.20
2022-11-09T05:01:17.875Z,3.20
2022-11-09T05:02:17.876Z,3.10
2022-11-09T05:03:18.289Z,3.30
2022-11-09T05:04:17.885Z,3.80
2022-11-09T05:05:17.875Z,3.50
2022-11-09T05:06:17.835Z,3.50
2022-11-09T05:07:17.874Z,3.30
2022-11-09T05:08:17.836Z,3.50
2022-11-09T05:09:17.806Z,3.50
2022-11-09T05:10:17.818Z,3.10
2022-11-09T05:11:17.793Z,3.20
2022-11-09T05:12:17.802Z,3.30
2022-11-09T05:13:18.132Z,3.10
2022-11-09T05:14:17.773Z,3.30
2022-11-09T05:15:17.799Z,3.40
2022-11-09T05:16:17.774Z,3.10
2022-11-09T05:17:17.784Z,3.40
2022-11-09T05:18:17.757Z,3.30
2022-11-09T05:19:17.749Z,3.50
2022-11-09T05:20:17.748Z,3.60
2022-11-09T05:21:17.717Z,3.40
2022-11-09T05:22:17.746Z,3.50
2022-11-09T05:23:18.121Z,3.20
2022-11-09T05:24:17.714Z,3.10
2022-11-09T05:25:17.753Z,3.20
2022-11-09T05:26:17.696Z,3.40
2022-11-09T05:27:17.682Z,3.40
2022-11-09T05:28:17.696Z,3.10
2022-11-09T05:29:17.712Z,3.40
2022-11-09T05:30:17.697Z,3.10
2022-11-09T05:31:17.770Z,3.50
2022-11-09T05:32:17.650Z,3.60
2022-11-09T05:33:18.040Z,4.20
2022-11-09T05:34:17.647Z,3.40
2022-11-09T05:35:17.658Z,3.60
2022-11-09T05:36:17.638Z,3.50
2022-11-09T05:37:17.649Z,3.50
2022-11-09T05:38:17.610Z,3.40
2022-11-09T05:39:17.598Z,3.40
2022-11-09T05:40:17.594Z,3.60
2022-11-09T05:41:17.614Z,3.10
2022-11-09T05:42:17.604Z,3.20
2022-11-09T05:43:17.936Z,2.90
2022-11-09T05:44:17.587Z,3.30
2022-11-09T05:46:19.551Z,3.50
2022-11-09T05:47:17.604Z,3.00
2022-11-09T05:48:17.577Z,3.00
2022-11-09T05:49:17.529Z,3.00
2022-11-09T05:50:17.537Z,2.70
2022-11-09T05:51:17.522Z,2.80
2022-11-09T05:52:17.522Z,2.80
2022-11-09T05:53:17.681Z,2.60
2022-11-09T05:54:17.510Z,2.80
2022-11-09T05:55:17.482Z,3.20
2022-11-09T05:56:17.485Z,3.00
2022-11-09T05:57:17.472Z,3.00
2022-11-09T05:58:17.493Z,3.30
2022-11-09T05:59:17.464Z,3.20
2022-11-09T06:00:17.481Z,2.70
2022-11-09T06:01:17.463Z,3.10
2022-11-09T06:02:17.548Z,3.10
2022-11-09T06:03:17.702Z,2.90
2022-11-09T06:04:17.426Z,2.80
2022-11-09T06:05:17.514Z,2.60
2022-11-09T06:06:17.457Z,2.40
2022-11-09T06:07:17.491Z,2.70
2022-11-09T06:08:17.387Z,2.90
2022-11-09T06:09:17.422Z,2.70
2022-11-09T06:10:17.390Z,2.80
2022-11-09T06:11:23.537Z,3.20
2022-11-09T06:12:19.390Z,2.40
2022-11-09T06:13:17.667Z,2.40
2022-11-09T06:14:17.369Z,2.70
2022-11-09T06:15:17.351Z,2.60
2022-11-09T06:16:17.340Z,2.40
2022-11-09T06:17:17.347Z,2.10
2022-11-09T06:18:17.329Z,2.30
2022-11-09T06:19:17.419Z,2.20
2022-11-09T06:20:17.299Z,2.10
2022-11-09T06:21:17.307Z,2.00
2022-11-09T06:22:17.313Z,2.70
2022-11-09T06:23:17.510Z,2.10
2022-11-09T06:24:17.303Z,2.40
2022-11-09T06:25:17.288Z,2.00
2022-11-09T06:26:17.292Z,2.30
2022-11-09T06:27:17.295Z,2.20
2022-11-09T06:28:17.270Z,2.00
2022-11-09T06:29:17.247Z,2.00
2022-11-09T06:30:17.262Z,2.30
2022-11-09T06:31:17.269Z,2.10
2022-11-09T06:32:17.226Z,2.00
2022-11-09T06:33:17.559Z,2.00
2022-11-09T06:34:17.221Z,1.90
2022-11-09T06:35:17.209Z,1.80
2022-11-09T06:36:17.221Z,1.90
2022-11-09T06:37:17.188Z,1.80
2022-11-09T06:38:17.188Z,1.70
2022-11-09T06:39:17.177Z,2.00
2022-11-09T06:40:17.174Z,1.80
2022-11-09T06:41:17.186Z,1.80
2022-11-09T06:42:17.215Z,1.80
2022-11-09T06:43:17.351Z,1.90
2022-11-09T06:44:17.146Z,1.80
2022-11-09T06:45:17.159Z,1.50
2022-11-09T06:46:17.164Z,2.00
2022-11-09T06:47:17.117Z,2.00
2022-11-09T06:48:17.125Z,1.50
2022-11-09T06:49:17.120Z,2.00
2022-11-09T06:50:17.107Z,1.80
2022-11-09T06:51:17.141Z,2.00
2022-11-09T06:52:17.125Z,2.10
2022-11-09T06:53:17.124Z,2.20
2022-11-09T06:54:17.071Z,1.90
2022-11-09T06:55:17.076Z,1.90
2022-11-09T06:56:17.081Z,1.80
2022-11-09T06:57:17.117Z,1.70
2022-11-09T06:58:17.107Z,2.00
2022-11-09T06:59:17.037Z,1.80
2022-11-09T07:00:17.051Z,1.50
2022-11-09T07:01:17.147Z,2.00
2022-11-09T07:02:17.007Z,1.80
2022-11-09T07:03:18.516Z,2.00
2022-11-09T07:04:17.050Z,1.60
2022-11-09T07:05:16.992Z,1.80
2022-11-09T07:06:17.015Z,1.80
2022-11-09T07:07:17.047Z,1.60
2022-11-09T07:08:16.961Z,1.80
2022-11-09T07:09:17.001Z,1.50
2022-11-09T07:10:16.970Z,2.00
2022-11-09T07:11:16.985Z,1.70
2022-11-09T07:12:17.034Z,1.80
2022-11-09T07:13:16.935Z,1.80
2022-11-09T07:14:16.967Z,1.70
2022-11-09T07:15:16.922Z,1.70
2022-11-09T07:16:16.945Z,1.90
2022-11-09T07:17:16.925Z,1.60
2022-11-09T07:18:16.927Z,1.70
2022-11-09T07:19:16.909Z,1.70
2022-11-09T07:20:16.915Z,1.70
2022-11-09T07:21:16.932Z,1.70
2022-11-09T07:22:16.881Z,1.60
2022-11-09T07:23:16.988Z,1.50
2022-11-09T07:24:16.870Z,1.50
2022-11-09T07:25:16.881Z,1.40
2022-11-09T07:26:16.856Z,1.50
2022-11-09T07:27:16.852Z,1.40
2022-11-09T07:28:16.829Z,1.50
2022-11-09T07:29:16.873Z,1.70
2022-11-09T07:30:16.859Z,1.50
2022-11-09T07:31:16.983Z,1.70
2022-11-09T07:32:16.868Z,1.70
2022-11-09T07:33:16.880Z,1.50
2022-11-09T07:34:16.952Z,1.40
2022-11-09T07:35:16.898Z,1.30
2022-11-09T07:36:21.081Z,1.70
2022-11-09T07:37:17.868Z,1.50
2022-11-09T07:38:16.772Z,1.40
2022-11-09T07:39:16.759Z,1.50
2022-11-09T07:40:16.774Z,1.30
2022-11-09T07:41:16.745Z,1.60
2022-11-09T07:42:16.730Z,1.70
2022-11-09T07:43:16.816Z,1.50
2022-11-09T07:44:16.873Z,1.40
2022-11-09T07:45:16.729Z,1.50
2022-11-09T07:46:16.710Z,1.60
2022-11-09T07:47:18.384Z,1.70
2022-11-09T07:48:17.710Z,1.40
2022-11-09T07:49:16.689Z,1.40
2022-11-09T07:50:16.712Z,1.70
2022-11-09T07:51:16.685Z,1.40
2022-11-09T07:52:16.693Z,1.70
2022-11-09T07:53:16.683Z,1.60
2022-11-09T07:54:17.759Z,1.70
2022-11-09T07:55:16.646Z,1.60
2022-11-09T07:56:16.673Z,1.60
2022-11-09T07:57:16.617Z,1.60
2022-11-09T07:58:16.641Z,1.40
2022-11-09T07:59:16.608Z,1.40
2022-11-09T08:00:21.081Z,1.60
2022-11-09T08:01:18.615Z,1.50
2022-11-09T08:02:16.666Z,1.80
2022-11-09T08:03:16.589Z,1.60
2022-11-09T08:04:16.570Z,1.60
2022-11-09T08:05:16.573Z,1.50
2022-11-09T08:06:18.569Z,1.60
2022-11-09T08:07:17.609Z,1.50
2022-11-09T08:08:16.553Z,1.70
2022-11-09T08:09:16.541Z,1.50
2022-11-09T08:10:16.536Z,1.60
2022-11-09T08:11:16.531Z,1.60
2022-11-09T08:12:16.578Z,1.50
2022-11-09T08:13:16.529Z,2.00
2022-11-09T08:14:16.550Z,1.50
2022-11-09T08:15:16.487Z,1.30
2022-11-09T08:16:16.485Z,1.40
2022-11-09T08:17:16.530Z,1.60
2022-11-09T08:18:16.515Z,1.50
2022-11-09T08:19:16.468Z,1.60
2022-11-09T08:20:16.484Z,1.60
2022-11-09T08:21:16.511Z,1.50
2022-11-09T08:22:16.437Z,1.60
2022-11-09T08:23:16.484Z,1.60
2022-11-09T08:24:16.448Z,1.60
2022-11-09T08:25:16.434Z,1.50
2022-11-09T08:26:16.475Z,1.60
2022-11-09T08:27:16.419Z,1.30
2022-11-09T08:28:16.501Z,1.60
2022-11-09T08:29:16.385Z,1.70
2022-11-09T08:30:16.538Z,1.80
2022-11-09T08:31:16.430Z,1.40
2022-11-09T08:32:16.434Z,1.50
2022-11-09T08:33:16.361Z,1.60
2022-11-09T08:34:16.359Z,1.60
2022-11-09T08:35:16.390Z,1.60
2022-11-09T08:36:16.322Z,1.90
2022-11-09T08:37:16.327Z,1.80
2022-11-09T08:38:16.354Z,1.60
2022-11-09T08:39:16.303Z,1.90
2022-11-09T08:40:16.311Z,1.70
2022-11-09T08:41:16.323Z,1.70
2022-11-09T08:42:16.294Z,1.70
2022-11-09T08:43:16.368Z,1.70
2022-11-09T08:44:16.270Z,2.10
2022-11-09T08:45:16.272Z,1.50
2022-11-09T08:46:16.328Z,1.80
2022-11-09T08:47:16.254Z,2.10
2022-11-09T08:48:16.226Z,1.80
2022-11-09T08:49:16.240Z,1.90
2022-11-09T08:50:16.218Z,1.90
2022-11-09T08:51:16.256Z,2.00
2022-11-09T08:52:16.221Z,1.70
2022-11-09T08:53:16.204Z,1.90
2022-11-09T08:54:16.209Z,2.00
2022-11-09T08:55:16.196Z,1.90
2022-11-09T08:56:16.251Z,2.00
2022-11-09T08:57:16.246Z,1.90
2022-11-09T08:58:16.156Z,2.70
2022-11-09T08:59:16.173Z,2.20
2022-11-09T09:00:16.165Z,2.10
2022-11-09T09:01:17.403Z,2.10
2022-11-09T09:02:17.248Z,2.50
2022-11-09T09:03:16.196Z,2.00
2022-11-09T09:04:16.133Z,2.30
2022-11-09T09:05:16.116Z,2.50
2022-11-09T09:06:16.137Z,2.30
2022-11-09T09:07:16.126Z,2.40
2022-11-09T09:08:16.110Z,2.30
2022-11-09T09:09:16.138Z,2.30
2022-11-09T09:10:16.073Z,2.10
2022-11-09T09:11:16.080Z,3.20
2022-11-09T09:12:16.064Z,2.00
2022-11-09T09:13:16.143Z,2.50
2022-11-09T09:14:16.081Z,2.90
2022-11-09T09:15:16.046Z,2.30
2022-11-09T09:16:16.043Z,2.40
2022-11-09T09:17:16.033Z,2.40
2022-11-09T09:18:16.090Z,2.20
2022-11-09T09:19:16.048Z,2.20
2022-11-09T09:20:16.003Z,2.20
2022-11-09T09:21:15.992Z,2.00
2022-11-09T09:22:15.998Z,2.40
2022-11-09T09:23:15.976Z,2.20
2022-11-09T09:24:15.978Z,2.40
2022-11-09T09:25:16.004Z,2.30
2022-11-09T09:26:15.960Z,2.30
2022-11-09T09:27:15.961Z,2.10
2022-11-09T09:28:15.990Z,2.30
2022-11-09T09:29:16.051Z,2.40
2022-11-09T09:30:15.945Z,2.20
2022-11-09T09:31:18.496Z,2.20
2022-11-09T09:32:16.919Z,2.40
2022-11-09T09:33:15.905Z,2.20
2022-11-09T09:34:15.920Z,2.40
2022-11-09T09:35:15.879Z,2.30
2022-11-09T09:36:15.871Z,2.20
2022-11-09T09:37:15.868Z,2.30
2022-11-09T09:38:15.873Z,2.40
2022-11-09T09:39:15.920Z,2.40
2022-11-09T09:40:15.945Z,2.50
2022-11-09T09:41:15.922Z,2.50
2022-11-09T09:42:15.853Z,2.00
2022-11-09T09:43:15.826Z,2.30
2022-11-09T09:44:15.821Z,2.40
2022-11-09T09:45:15.788Z,2.30
2022-11-09T09:46:15.822Z,2.20
2022-11-09T09:47:15.788Z,2.50
2022-11-09T09:48:15.777Z,2.00
2022-11-09T09:49:15.758Z,2.30
2022-11-09T09:50:15.867Z,2.50
2022-11-09T09:51:15.766Z,2.30
2022-11-09T09:52:15.806Z,2.40
2022-11-09T09:53:24.233Z,2.40
2022-11-09T09:54:17.724Z,2.50
2022-11-09T09:55:15.707Z,2.30
2022-11-09T09:56:15.735Z,2.50
2022-11-09T09:57:15.701Z,2.30
2022-11-09T09:58:15.715Z,2.60
2022-11-09T09:59:15.698Z,2.40
2022-11-09T10:00:15.670Z,2.60
2022-11-09T10:01:15.762Z,2.40
2022-11-09T10:02:15.692Z,2.30
2022-11-09T10:03:15.674Z,2.70
2022-11-09T10:04:15.686Z,2.30
2022-11-09T10:05:15.644Z,2.30
2022-11-09T10:06:15.622Z,2.10
2022-11-09T10:07:15.677Z,2.30
2022-11-09T10:08:16.616Z,2.40
2022-11-09T10:09:15.638Z,2.20
2022-11-09T10:10:15.609Z,2.50
2022-11-09T10:11:15.628Z,2.30
2022-11-09T10:12:15.588Z,2.40
2022-11-09T10:13:15.624Z,2.30
2022-11-09T10:14:15.621Z,2.50
2022-11-09T10:15:15.579Z,2.20
2022-11-09T10:16:15.581Z,2.30
2022-11-09T10:17:15.546Z,2.10
2022-11-09T10:18:15.537Z,2.40
2022-11-09T10:19:15.560Z,2.00
2022-11-09T10:20:15.532Z,2.00
2022-11-09T10:21:15.533Z,2.20
2022-11-09T10:22:15.533Z,1.90
2022-11-09T10:23:15.519Z,2.10
2022-11-09T10:24:15.528Z,2.30
2022-11-09T10:26:17.509Z,2.20
2022-11-09T10:27:15.470Z,2.10
2022-11-09T10:28:15.507Z,2.10
2022-11-09T10:29:16.905Z,2.20
2022-11-09T10:30:16.519Z,2.10
2022-11-09T10:31:15.469Z,1.70
2022-11-09T10:32:15.467Z,1.90
2022-11-09T10:33:15.489Z,1.90
2022-11-09T10:34:15.413Z,1.90
2022-11-09T10:35:15.480Z,2.00
2022-11-09T10:36:15.453Z,2.10
2022-11-09T10:37:15.431Z,2.00
2022-11-09T10:38:15.403Z,1.90
2022-11-09T10:39:15.402Z,1.90
2022-11-09T10:40:15.397Z,1.60
2022-11-09T10:41:15.417Z,2.10
2022-11-09T10:42:15.365Z,2.00
2022-11-09T10:43:15.382Z,2.20
2022-11-09T10:44:17.526Z,1.70
2022-11-09T10:45:16.361Z,1.90
2022-11-09T10:46:15.322Z,1.70
2022-11-09T10:47:15.381Z,1.70
2022-11-09T10:48:15.291Z,1.90
2022-11-09T10:49:15.348Z,2.00
2022-11-09T10:50:15.396Z,1.90
2022-11-09T10:51:15.291Z,2.00
2022-11-09T10:52:15.330Z,1.70
2022-11-09T10:53:15.286Z,1.70
2022-11-09T10:54:15.268Z,2.00
2022-11-09T10:55:15.287Z,1.80
2022-11-09T10:56:20.364Z,1.80
2022-11-09T10:57:17.257Z,1.70
2022-11-09T10:58:15.251Z,1.70
2022-11-09T10:59:15.272Z,2.00
2022-11-09T11:00:15.279Z,1.80
2022-11-09T11:01:15.350Z,1.80
2022-11-09T11:02:15.214Z,1.70
2022-11-09T11:03:15.190Z,1.80
2022-11-09T11:04:15.169Z,1.90
2022-11-09T11:05:15.167Z,2.00
2022-11-09T11:06:15.240Z,1.80
2022-11-09T11:07:19.721Z,1.70
2022-11-09T11:08:17.155Z,1.70
2022-11-09T11:09:15.163Z,1.60
2022-11-09T11:10:15.155Z,2.00
2022-11-09T11:11:32.810Z,1.70
2022-11-09T11:12:17.140Z,1.80
2022-11-09T11:13:15.120Z,1.80
2022-11-09T11:14:19.902Z,1.80
2022-11-09T11:15:17.103Z,1.70
2022-11-09T11:16:15.997Z,1.60
2022-11-09T11:17:15.136Z,1.70
2022-11-09T11:18:15.147Z,1.50
2022-11-09T11:19:15.118Z,1.90
2022-11-09T11:20:15.073Z,1.60
2022-11-09T11:21:18.761Z,1.70
2022-11-09T11:22:16.075Z,1.70
2022-11-09T11:23:15.037Z,1.60
2022-11-09T11:24:15.096Z,1.70
2022-11-09T11:25:15.019Z,1.40
2022-11-09T11:26:15.027Z,1.60
2022-11-09T11:27:15.071Z,1.60
2022-11-09T11:28:15.017Z,1.80
2022-11-09T11:29:15.019Z,1.60
2022-11-09T11:30:14.982Z,2.10
2022-11-09T11:31:15.008Z,1.60
2022-11-09T11:32:14.984Z,1.70
2022-11-09T11:33:14.976Z,2.00
2022-11-09T11:34:31.969Z,1.90
2022-11-09T11:35:16.932Z,1.40
2022-11-09T11:36:14.955Z,2.00
2022-11-09T11:37:14.935Z,1.50
2022-11-09T11:38:14.974Z,1.60
2022-11-09T11:39:14.912Z,1.50
2022-11-09T11:40:14.940Z,1.60
2022-11-09T11:41:14.924Z,1.70
2022-11-09T11:42:14.888Z,1.60
2022-11-09T11:43:14.885Z,1.80
2022-11-09T11:44:14.913Z,1.60
2022-11-09T11:45:38.821Z,1.40
2022-11-09T11:46:16.874Z,1.60
2022-11-09T11:47:14.867Z,1.50
2022-11-09T11:48:14.861Z,1.30
2022-11-09T11:49:14.840Z,1.60
2022-11-09T11:50:14.835Z,1.50
2022-11-09T11:51:14.967Z,1.50
2022-11-09T11:52:14.835Z,2.00
2022-11-09T11:53:14.801Z,1.50
2022-11-09T11:54:14.814Z,1.50
2022-11-09T11:55:14.784Z,1.40
2022-11-09T11:56:14.823Z,1.40
2022-11-09T11:57:14.829Z,1.30
2022-11-09T11:58:14.773Z,1.50
2022-11-09T11:59:14.778Z,1.50
2022-11-09T12:00:14.769Z,1.70
2022-11-09T12:01:14.785Z,1.60
2022-11-09T12:02:14.937Z,2.10
2022-11-09T12:03:14.734Z,1.60
2022-11-09T12:04:14.722Z,1.20
2022-11-09T12:05:14.726Z,1.70
2022-11-09T12:06:14.725Z,1.40
2022-11-09T12:07:14.816Z,1.90
2022-11-09T12:08:14.704Z,1.70
2022-11-09T12:09:14.705Z,1.30
2022-11-09T12:10:14.689Z,1.50
2022-11-09T12:11:14.667Z,1.50
2022-11-09T12:12:14.678Z,1.50
2022-11-09T12:13:14.670Z,1.40
2022-11-09T12:14:14.639Z,1.40
2022-11-09T12:15:14.680Z,1.50
2022-11-09T12:16:14.646Z,1.20
2022-11-09T12:17:14.654Z,1.40
2022-11-09T12:18:14.642Z,1.30
2022-11-09T12:19:14.648Z,1.40
2022-11-09T12:20:14.610Z,1.20
2022-11-09T12:21:14.586Z,1.30
2022-11-09T12:22:14.621Z,1.40
2022-11-09T12:23:14.626Z,1.20
2022-11-09T12:24:14.590Z,1.40
2022-11-09T12:25:14.592Z,1.50
2022-11-09T12:26:17.017Z,1.40
2022-11-09T12:27:31.474Z,1.20
2022-11-09T12:28:16.663Z,1.40
2022-11-09T12:29:14.553Z,1.40
2022-11-09T12:30:14.867Z,1.40
2022-11-09T12:31:14.530Z,1.30
2022-11-09T12:32:14.542Z,1.50
2022-11-09T12:33:14.532Z,1.30
2022-11-09T12:34:14.494Z,1.50
2022-11-09T12:35:14.542Z,1.50
2022-11-09T12:36:14.638Z,1.30
2022-11-09T12:37:14.493Z,1.30
2022-11-09T12:38:14.463Z,1.30
2022-11-09T12:39:14.464Z,1.40
2022-11-09T12:40:14.473Z,1.20
2022-11-09T12:41:14.574Z,1.10
2022-11-09T12:42:14.452Z,1.20
2022-11-09T12:43:14.425Z,1.40
2022-11-09T12:44:17.046Z,1.40
2022-11-09T12:45:15.415Z,1.30
2022-11-09T12:46:14.481Z,1.30
2022-11-09T12:47:14.473Z,1.30
2022-11-09T12:48:14.587Z,1.40
2022-11-09T12:49:14.390Z,1.60
2022-11-09T12:50:14.453Z,1.40
2022-11-09T12:51:14.404Z,1.10
2022-11-09T12:52:14.359Z,1.80
2022-11-09T12:53:14.354Z,1.60
2022-11-09T12:54:14.377Z,1.40
2022-11-09T12:55:14.432Z,1.30
2022-11-09T12:56:14.343Z,1.20
2022-11-09T12:57:14.320Z,1.50
2022-11-09T12:58:14.340Z,1.50
2022-11-09T12:59:14.329Z,1.20
2022-11-09T13:00:14.349Z,1.40
2022-11-09T13:01:14.388Z,1.20
2022-11-09T13:02:14.296Z,1.60
2022-11-09T13:03:14.354Z,1.40
2022-11-09T13:04:14.291Z,1.40
2022-11-09T13:05:14.289Z,1.30
2022-11-09T13:06:14.287Z,1.10
2022-11-09T13:07:14.410Z,1.10
2022-11-09T13:08:14.307Z,1.40
2022-11-09T13:09:14.254Z,1.10
2022-11-09T13:10:14.245Z,1.20
2022-11-09T13:11:14.253Z,1.60
2022-11-09T13:12:16.185Z,1.30
2022-11-09T13:13:15.250Z,1.10
2022-11-09T13:14:14.244Z,1.50
2022-11-09T13:15:14.183Z,1.20
2022-11-09T13:16:14.250Z,1.00
2022-11-09T13:17:15.081Z,1.60
2022-11-09T13:18:14.166Z,1.20
2022-11-09T13:19:14.195Z,1.00
2022-11-09T13:20:33.812Z,1.10